createdAt,value
2017-05-12T00:01:53.679Z,7.72
2017-05-12T00:04:22.735Z,7.48
2017-05-12T00:06:52.070Z,7.58
2017-05-12T00:09:21.114Z,7.38
2017-05-12T00:11:50.174Z,7.46
2017-05-12T00:14:19.272Z,6.92
2017-05-12T00:16:48.334Z,7.70
2017-05-12T00:19:17.528Z,6.52
2017-05-12T00:21:46.603Z,7.32
2017-05-12T00:24:15.656Z,7.66
2017-05-12T00:26:44.763Z,6.80
2017-05-12T00:29:13.816Z,7.68
2017-05-12T00:31:43.762Z,7.94
2017-05-12T00:34:12.833Z,7.52
2017-05-12T00:36:41.890Z,7.38
2017-05-12T00:39:11.144Z,7.40
2017-05-12T00:41:40.221Z,7.34
2017-05-12T00:44:09.298Z,7.70
2017-05-12T00:46:38.391Z,6.98
2017-05-12T00:49:08.410Z,6.76
2017-05-12T00:51:37.478Z,7.44
2017-05-12T00:54:06.531Z,7.24
2017-05-12T00:56:35.638Z,7.78
2017-05-12T00:59:04.687Z,7.00
2017-05-12T01:01:34.618Z,7.98
2017-05-12T01:04:03.804Z,8.82
2017-05-12T01:06:32.871Z,7.66
2017-05-12T01:09:02.702Z,8.54
2017-05-12T01:11:31.772Z,7.94
2017-05-12T01:14:01.727Z,9.12
2017-05-12T01:16:30.811Z,10.14
2017-05-12T01:18:59.885Z,10.10
2017-05-12T01:21:29.724Z,7.64
2017-05-12T01:23:58.786Z,8.88
2017-05-12T01:26:28.618Z,10.12
2017-05-12T01:28:57.710Z,11.02
2017-05-12T01:31:26.907Z,9.20
2017-05-12T01:33:55.995Z,10.02
2017-05-12T01:36:25.803Z,9.12
2017-05-12T01:38:55.723Z,8.94
2017-05-12T01:41:24.780Z,10.20
2017-05-12T01:43:53.823Z,9.04
2017-05-12T01:46:23.011Z,9.96
2017-05-12T01:48:52.095Z,10.20
2017-05-12T01:51:21.903Z,9.30
2017-05-12T01:53:51.731Z,9.50
2017-05-12T01:56:21.774Z,9.42
2017-05-12T01:58:51.060Z,10.56
2017-05-12T02:01:20.118Z,9.56
2017-05-12T02:03:49.309Z,8.94
2017-05-12T02:06:18.504Z,8.46
2017-05-12T02:08:47.576Z,8.12
2017-05-12T02:11:16.636Z,8.24
2017-05-12T02:13:45.710Z,8.26
2017-05-12T02:16:14.756Z,8.72
2017-05-12T02:18:44.187Z,8.20
2017-05-12T02:21:13.239Z,8.58
2017-05-12T02:23:42.294Z,8.50
2017-05-12T02:26:11.606Z,7.86
2017-05-12T02:28:40.679Z,9.86
2017-05-12T02:31:10.549Z,9.22
2017-05-12T02:33:40.024Z,9.88
2017-05-12T02:36:09.100Z,9.58
2017-05-12T02:38:39.025Z,8.70
2017-05-12T02:41:08.448Z,10.72
2017-05-12T02:43:37.554Z,10.90
2017-05-12T02:46:06.648Z,11.02
2017-05-12T02:48:35.749Z,10.44
2017-05-12T02:51:04.822Z,10.60
2017-05-12T02:53:34.019Z,10.54
2017-05-12T02:56:03.079Z,9.74
2017-05-12T02:58:32.875Z,8.88
2017-05-12T03:01:02.069Z,9.30
2017-05-12T03:03:31.904Z,10.38
2017-05-12T03:06:00.996Z,10.60
2017-05-12T03:08:30.419Z,10.78
2017-05-12T03:10:59.518Z,10.10
2017-05-12T03:13:28.577Z,10.12
2017-05-12T03:15:57.658Z,10.68
2017-05-12T03:18:26.719Z,10.04
2017-05-12T03:20:56.000Z,10.02
2017-05-12T03:23:25.071Z,8.90
2017-05-12T03:25:54.881Z,10.10
2017-05-12T03:28:25.063Z,8.82
2017-05-12T03:30:54.127Z,10.36
2017-05-12T03:33:23.306Z,9.74
2017-05-12T03:35:52.517Z,9.78
2017-05-12T03:38:21.576Z,10.58
2017-05-12T03:40:51.529Z,10.52
2017-05-12T03:43:20.605Z,10.08
2017-05-12T03:45:49.676Z,10.00
2017-05-12T03:48:19.507Z,10.92
2017-05-12T03:50:48.591Z,9.22
2017-05-12T03:53:18.738Z,9.24
2017-05-12T03:55:47.803Z,10.20
2017-05-12T03:58:17.615Z,10.54
2017-05-12T04:00:47.450Z,10.44
2017-05-12T04:03:16.528Z,10.48
2017-05-12T04:05:46.361Z,10.58
2017-05-12T04:08:15.455Z,10.06
2017-05-12T04:10:44.755Z,10.30
2017-05-12T04:13:13.955Z,11.12
2017-05-12T04:15:43.766Z,10.24
2017-05-12T04:18:12.862Z,11.20
2017-05-12T04:20:42.170Z,11.04
2017-05-12T04:23:11.386Z,12.14
2017-05-12T04:25:40.454Z,11.58
2017-05-12T04:28:09.543Z,12.66
2017-05-12T04:30:38.743Z,11.86
2017-05-12T04:33:07.835Z,11.10
2017-05-12T04:35:36.899Z,11.96
2017-05-12T04:38:07.094Z,12.66
2017-05-12T04:40:36.933Z,11.34
2017-05-12T04:43:06.128Z,10.74
2017-05-12T04:45:35.359Z,10.28
2017-05-12T04:48:04.418Z,11.10
2017-05-12T04:50:34.227Z,11.50
2017-05-12T04:53:03.302Z,10.64
2017-05-12T04:55:32.387Z,11.70
2017-05-12T04:58:01.464Z,12.08
2017-05-12T05:00:30.534Z,11.88
2017-05-12T05:02:59.738Z,10.72
2017-05-12T05:05:28.808Z,11.40
2017-05-12T05:07:58.614Z,11.80
2017-05-12T05:10:27.733Z,11.86
2017-05-12T05:12:56.804Z,13.58
2017-05-12T05:15:25.930Z,13.14
2017-05-12T05:17:55.012Z,11.20
2017-05-12T05:20:24.232Z,10.34
2017-05-12T05:22:53.314Z,10.42
2017-05-12T05:25:22.374Z,10.96
2017-05-12T05:27:51.450Z,10.82
2017-05-12T05:30:20.514Z,12.08
2017-05-12T05:32:49.632Z,12.08
2017-05-12T05:35:18.723Z,11.30
2017-05-12T05:37:48.387Z,11.20
2017-05-12T05:40:17.473Z,11.68
2017-05-12T05:42:47.276Z,12.12
2017-05-12T05:45:17.123Z,10.64
2017-05-12T05:47:46.212Z,11.18
2017-05-12T05:50:15.410Z,11.42
2017-05-12T05:52:44.489Z,10.64
2017-05-12T05:55:14.301Z,11.54
2017-05-12T05:57:43.371Z,10.18
2017-05-12T06:00:12.485Z,11.38
2017-05-12T06:02:41.715Z,11.62
2017-05-12T06:05:10.801Z,12.52
2017-05-12T06:07:39.999Z,11.82
2017-05-12T06:10:09.096Z,11.96
2017-05-12T06:12:38.165Z,13.52
2017-05-12T06:15:07.272Z,13.10
2017-05-12T06:17:36.333Z,13.90
2017-05-12T06:20:05.524Z,14.20
2017-05-12T06:22:35.359Z,13.90
2017-05-12T06:25:04.481Z,17.56
2017-05-12T06:27:33.562Z,14.34
2017-05-12T06:30:02.623Z,14.52
2017-05-12T06:32:31.715Z,14.96
2017-05-12T06:35:00.807Z,16.02
2017-05-12T06:37:30.175Z,15.38
2017-05-12T06:39:59.251Z,14.82
2017-05-12T06:42:28.329Z,16.58
2017-05-12T06:44:57.429Z,13.86
2017-05-12T06:47:26.499Z,15.58
2017-05-12T06:49:55.658Z,16.10
2017-05-12T06:52:24.723Z,15.32
2017-05-12T06:54:53.825Z,15.92
2017-05-12T06:57:23.104Z,16.96
2017-05-12T06:59:52.296Z,16.30
2017-05-12T07:02:21.366Z,17.32
2017-05-12T07:04:50.419Z,17.70
2017-05-12T07:07:19.499Z,18.56
2017-05-12T07:09:48.579Z,16.20
2017-05-12T07:12:17.682Z,16.22
2017-05-12T07:14:46.757Z,17.94
2017-05-12T07:17:15.999Z,17.66
2017-05-12T07:19:45.066Z,18.22
2017-05-12T07:22:14.515Z,17.10
2017-05-12T07:24:43.594Z,17.00
2017-05-12T07:27:12.668Z,16.96
2017-05-12T07:29:41.753Z,16.78
2017-05-12T07:32:10.936Z,18.54
2017-05-12T07:34:40.022Z,19.00
2017-05-12T07:37:09.155Z,20.62
2017-05-12T07:39:38.264Z,19.24
2017-05-12T07:42:07.550Z,17.26
2017-05-12T07:44:36.775Z,18.44
2017-05-12T07:47:05.850Z,19.70
2017-05-12T07:49:35.363Z,20.78
2017-05-12T07:52:04.463Z,19.50
2017-05-12T07:54:33.539Z,20.24
2017-05-12T07:57:02.644Z,18.80
2017-05-12T07:59:31.713Z,19.34
2017-05-12T08:02:00.830Z,21.04
2017-05-12T08:04:29.886Z,20.20
2017-05-12T08:06:59.095Z,20.08
2017-05-12T08:09:28.207Z,20.22
2017-05-12T08:11:57.287Z,20.68
2017-05-12T08:14:26.388Z,17.40
2017-05-12T08:16:55.494Z,19.38
2017-05-12T08:19:24.718Z,19.82
2017-05-12T08:21:53.791Z,20.50
2017-05-12T08:24:22.859Z,18.40
2017-05-12T08:26:51.963Z,17.14
2017-05-12T08:29:21.023Z,20.36
2017-05-12T08:31:50.409Z,21.36
2017-05-12T08:34:19.483Z,16.70
2017-05-12T08:36:49.338Z,22.50
2017-05-12T08:39:18.475Z,18.02
2017-05-12T08:41:47.554Z,16.52
2017-05-12T08:44:16.659Z,19.22
2017-05-12T08:46:45.773Z,18.30
2017-05-12T08:49:14.863Z,17.58
2017-05-12T08:51:43.930Z,19.78
2017-05-12T08:54:12.990Z,19.26
2017-05-12T08:56:42.086Z,18.28
2017-05-12T08:59:11.146Z,17.38
2017-05-12T09:01:40.353Z,20.10
2017-05-12T09:04:09.422Z,19.02
2017-05-12T09:06:38.482Z,18.72
2017-05-12T09:09:07.690Z,20.16
2017-05-12T09:11:36.749Z,21.68
2017-05-12T09:14:05.826Z,19.40
2017-05-12T09:16:34.898Z,19.40
2017-05-12T09:19:03.974Z,20.30
2017-05-12T09:21:33.041Z,19.78
2017-05-12T09:24:03.155Z,18.78
2017-05-12T09:26:32.975Z,19.00
2017-05-12T09:29:02.069Z,17.00
2017-05-12T09:31:31.159Z,18.36
2017-05-12T09:34:00.231Z,18.94
2017-05-12T09:36:29.327Z,20.22
2017-05-12T09:38:59.205Z,21.32
2017-05-12T09:41:28.283Z,20.60
2017-05-12T09:43:57.351Z,19.62
2017-05-12T09:46:26.445Z,16.34
2017-05-12T09:48:55.518Z,17.20
2017-05-12T09:51:24.739Z,22.38
2017-05-12T09:53:53.824Z,21.82
2017-05-12T09:56:23.658Z,18.28
2017-05-12T09:58:52.770Z,16.88
2017-05-12T10:01:21.831Z,14.62
2017-05-12T10:03:51.666Z,16.60
2017-05-12T10:06:20.815Z,17.26
2017-05-12T10:08:49.995Z,18.86
2017-05-12T10:11:19.067Z,17.28
2017-05-12T10:13:48.155Z,17.28
2017-05-12T10:16:17.247Z,16.14
2017-05-12T10:18:46.318Z,14.48
2017-05-12T10:21:15.421Z,14.46
2017-05-12T10:23:44.483Z,15.84
2017-05-12T10:26:13.706Z,15.08
2017-05-12T10:28:42.782Z,14.82
2017-05-12T10:31:11.849Z,15.18
2017-05-12T10:33:40.927Z,15.18
2017-05-12T10:36:10.216Z,14.24
2017-05-12T10:38:39.424Z,13.68
2017-05-12T10:41:08.562Z,12.70
2017-05-12T10:43:37.614Z,13.54
2017-05-12T10:46:06.707Z,17.20
2017-05-12T10:48:35.793Z,12.78
2017-05-12T10:51:04.882Z,12.86
2017-05-12T10:53:33.942Z,13.36
2017-05-12T10:56:03.881Z,16.42
2017-05-12T10:58:32.951Z,14.46
2017-05-12T11:01:02.623Z,15.54
2017-05-12T11:03:31.706Z,15.88
2017-05-12T11:06:00.990Z,17.36
2017-05-12T11:08:30.086Z,15.70
2017-05-12T11:10:59.200Z,15.76
2017-05-12T11:13:28.587Z,16.84
2017-05-12T11:15:57.679Z,18.02
2017-05-12T11:18:26.771Z,16.28
2017-05-12T11:20:55.867Z,16.40
2017-05-12T11:23:24.949Z,17.72
2017-05-12T11:25:54.071Z,17.20
2017-05-12T11:28:23.137Z,16.48
2017-05-12T11:30:52.358Z,17.78
2017-05-12T11:33:21.443Z,18.46
2017-05-12T11:35:50.515Z,15.78
2017-05-12T11:38:19.607Z,15.34
2017-05-12T11:40:48.715Z,15.18
2017-05-12T11:43:18.103Z,15.90
2017-05-12T11:45:47.185Z,15.96
2017-05-12T11:48:16.985Z,17.30
2017-05-12T11:50:46.853Z,16.28
2017-05-12T11:53:15.919Z,13.76
2017-05-12T11:55:45.139Z,17.36
2017-05-12T11:58:14.222Z,15.12
2017-05-12T12:00:43.388Z,14.96
2017-05-12T12:03:12.470Z,14.14
2017-05-12T12:05:41.657Z,12.86
2017-05-12T12:08:10.743Z,13.32
2017-05-12T12:10:39.884Z,12.46
2017-05-12T12:13:08.995Z,11.46
2017-05-12T12:15:38.732Z,13.38
2017-05-12T12:18:07.984Z,12.54
2017-05-12T12:20:37.800Z,12.10
2017-05-12T12:23:06.875Z,14.94
2017-05-12T12:25:36.711Z,12.96
2017-05-12T12:28:05.786Z,13.40
2017-05-12T12:30:35.771Z,14.66
2017-05-12T12:33:04.846Z,15.70
2017-05-12T12:35:33.919Z,19.24
2017-05-12T12:38:03.348Z,15.98
2017-05-12T12:40:32.616Z,17.82
2017-05-12T12:43:02.627Z,19.36
2017-05-12T12:45:32.851Z,14.88
2017-05-12T12:48:02.643Z,15.30
2017-05-12T12:50:32.466Z,17.26
2017-05-12T12:53:02.394Z,16.20
2017-05-12T12:55:31.468Z,16.92
2017-05-12T12:58:01.262Z,19.24
2017-05-12T13:00:30.351Z,17.68
2017-05-12T13:02:59.419Z,19.54
2017-05-12T13:05:28.620Z,20.26
2017-05-12T13:07:57.683Z,20.64
2017-05-12T13:10:27.755Z,18.70
2017-05-12T13:12:57.591Z,20.30
2017-05-12T13:15:27.390Z,22.28
2017-05-12T13:17:57.322Z,21.22
2017-05-12T13:20:26.531Z,19.58
2017-05-12T13:22:55.594Z,20.00
2017-05-12T13:25:25.436Z,16.34
2017-05-12T13:27:54.503Z,17.94
2017-05-12T13:30:24.552Z,17.30
2017-05-12T13:32:54.465Z,17.98
2017-05-12T13:35:23.716Z,17.72
2017-05-12T13:37:52.801Z,17.94
2017-05-12T13:40:21.860Z,17.52
2017-05-12T13:42:51.155Z,18.22
2017-05-12T13:45:20.215Z,18.18
2017-05-12T13:47:50.053Z,18.96
2017-05-12T13:50:19.135Z,18.04
2017-05-12T13:52:48.221Z,19.50
2017-05-12T13:55:17.519Z,21.04
2017-05-12T13:57:47.327Z,20.48
2017-05-12T14:00:17.171Z,19.66
2017-05-12T14:02:46.398Z,18.46
2017-05-12T14:05:15.474Z,20.88
2017-05-12T14:07:44.749Z,15.96
2017-05-12T14:10:13.851Z,14.30
2017-05-12T14:12:42.914Z,17.74
2017-05-12T14:15:11.996Z,18.56
2017-05-12T14:17:41.219Z,25.40
2017-05-12T14:20:10.359Z,18.82
2017-05-12T14:22:39.478Z,17.54
2017-05-12T14:25:09.562Z,21.54
2017-05-12T14:27:38.625Z,18.32
2017-05-12T14:30:08.433Z,18.22
2017-05-12T14:32:38.464Z,19.94
2017-05-12T14:35:07.619Z,19.66
2017-05-12T14:37:37.498Z,21.44
2017-05-12T14:40:06.606Z,29.46
2017-05-12T14:42:35.824Z,18.34
2017-05-12T14:45:04.899Z,18.40
2017-05-12T14:47:33.968Z,19.48
2017-05-12T14:50:03.220Z,19.66
2017-05-12T14:52:32.279Z,15.92
2017-05-12T14:55:00.899Z,16.16
2017-05-12T14:57:30.035Z,15.46
2017-05-12T14:59:59.115Z,15.62
2017-05-12T15:02:28.529Z,13.64
2017-05-12T15:04:57.709Z,16.68
2017-05-12T15:07:26.915Z,15.66
2017-05-12T15:09:56.035Z,13.16
2017-05-12T15:12:26.128Z,12.06
2017-05-12T15:14:55.592Z,16.38
2017-05-12T15:17:25.440Z,13.44
2017-05-12T15:19:54.663Z,13.78
2017-05-12T15:22:23.751Z,12.18
2017-05-12T15:24:52.860Z,9.90
2017-05-12T15:27:21.943Z,9.62
2017-05-12T15:29:51.019Z,11.70
2017-05-12T15:32:20.214Z,11.08
2017-05-12T15:34:49.439Z,11.70
2017-05-12T15:37:18.526Z,13.32
2017-05-12T15:39:47.673Z,14.40
2017-05-12T15:42:16.740Z,14.38
2017-05-12T15:44:45.854Z,14.92
2017-05-12T15:47:14.957Z,14.56
2017-05-12T15:49:44.399Z,14.82
2017-05-12T15:52:13.491Z,16.60
2017-05-12T15:54:42.551Z,16.70
2017-05-12T15:57:11.691Z,17.08
2017-05-12T15:59:40.778Z,15.14
2017-05-12T16:02:09.867Z,17.02
2017-05-12T16:04:38.941Z,16.56
2017-05-12T16:07:08.071Z,16.92
2017-05-12T16:09:37.152Z,19.16
2017-05-12T16:12:06.253Z,18.72
2017-05-12T16:14:35.367Z,20.14
2017-05-12T16:17:04.463Z,20.24
2017-05-12T16:19:33.768Z,20.10
2017-05-12T16:22:02.854Z,21.96
2017-05-12T16:24:32.048Z,23.60
2017-05-12T16:27:01.135Z,22.82
2017-05-12T16:29:30.208Z,24.18
2017-05-12T16:32:00.031Z,24.16
2017-05-12T16:34:29.507Z,22.98
2017-05-12T16:36:59.352Z,22.46
2017-05-12T16:39:28.517Z,23.70
2017-05-12T16:41:57.647Z,24.30
2017-05-12T16:44:26.694Z,26.04
2017-05-12T16:46:55.890Z,24.88
2017-05-12T16:49:25.022Z,26.16
2017-05-12T16:51:54.102Z,23.58
2017-05-12T16:54:23.343Z,23.54
2017-05-12T16:56:52.395Z,23.66
2017-05-12T16:59:21.501Z,21.58
2017-05-12T17:01:51.291Z,23.44
2017-05-12T17:04:21.494Z,25.20
2017-05-12T17:06:50.536Z,22.66
2017-05-12T17:09:19.659Z,23.38
2017-05-12T17:11:48.735Z,24.46
2017-05-12T17:14:17.812Z,23.90
2017-05-12T17:16:47.011Z,23.90
2017-05-12T17:19:16.070Z,22.58
2017-05-12T17:21:45.147Z,22.64
2017-05-12T17:24:14.243Z,23.40
2017-05-12T17:26:43.311Z,21.18
2017-05-12T17:29:12.403Z,22.98
2017-05-12T17:31:41.458Z,23.98
2017-05-12T17:34:10.659Z,22.46
2017-05-12T17:36:39.760Z,20.74
2017-05-12T17:39:08.863Z,21.26
2017-05-12T17:41:37.963Z,20.38
2017-05-12T17:44:07.042Z,20.06
2017-05-12T17:46:37.081Z,23.46
2017-05-12T17:49:06.155Z,23.62
2017-05-12T17:51:35.247Z,23.70
2017-05-12T17:54:04.340Z,22.80
2017-05-12T17:56:33.434Z,21.66
2017-05-12T17:59:03.447Z,21.12
2017-05-12T18:01:32.527Z,21.82
2017-05-12T18:04:01.603Z,20.52
2017-05-12T18:06:30.719Z,22.18
2017-05-12T18:09:00.535Z,21.94
2017-05-12T18:11:30.691Z,25.00
2017-05-12T18:13:59.795Z,24.34
2017-05-12T18:16:28.883Z,23.42
2017-05-12T18:19:00.911Z,24.72
2017-05-12T18:21:34.036Z,23.40
2017-05-12T18:24:03.121Z,24.20
2017-05-12T18:26:32.195Z,24.60
2017-05-12T18:29:02.590Z,27.14
2017-05-12T18:31:31.642Z,27.00
2017-05-12T18:34:00.702Z,26.62
2017-05-12T18:36:30.531Z,28.74
2017-05-12T18:38:59.643Z,25.50
2017-05-12T18:41:28.954Z,26.08
2017-05-12T18:43:58.947Z,27.30
2017-05-12T18:46:28.049Z,25.66
2017-05-12T18:48:57.142Z,28.26
2017-05-12T18:51:26.223Z,28.86
2017-05-12T18:53:55.543Z,27.28
2017-05-12T18:56:24.740Z,27.56
2017-05-12T18:58:53.807Z,25.72
2017-05-12T19:01:23.650Z,22.42
2017-05-12T19:03:52.719Z,28.28
2017-05-12T19:06:22.569Z,30.88
2017-05-12T19:08:51.696Z,27.66
2017-05-12T19:11:20.918Z,28.10
2017-05-12T19:13:50.010Z,28.72
2017-05-12T19:16:19.124Z,30.06
2017-05-12T19:18:48.230Z,28.60
2017-05-12T19:21:17.340Z,37.02
2017-05-12T19:23:46.467Z,48.56
2017-05-12T19:26:16.303Z,46.28
2017-05-12T19:28:46.264Z,47.70
2017-05-12T19:31:15.409Z,45.54
2017-05-12T19:33:45.235Z,41.96
2017-05-12T19:36:15.101Z,38.36
2017-05-12T19:38:44.988Z,36.98
2017-05-12T19:41:14.379Z,34.44
2017-05-12T19:43:43.474Z,34.86
2017-05-12T19:46:12.550Z,34.90
2017-05-12T19:48:42.384Z,32.30
2017-05-12T19:51:11.467Z,38.94
2017-05-12T19:53:40.575Z,33.92
2017-05-12T19:56:09.654Z,32.90
2017-05-12T19:58:39.798Z,35.00
2017-05-12T20:01:09.081Z,31.16
2017-05-12T20:03:38.235Z,30.92
2017-05-12T20:06:07.322Z,28.18
2017-05-12T20:08:36.440Z,33.52
2017-05-12T20:11:06.279Z,28.12
2017-05-12T20:13:35.360Z,31.28
2017-05-12T20:16:05.292Z,38.46
2017-05-12T20:18:34.359Z,36.22
2017-05-12T20:21:03.444Z,30.04
2017-05-12T20:23:33.298Z,32.20
2017-05-12T20:26:02.416Z,34.36
2017-05-12T20:28:31.774Z,32.30
2017-05-12T20:31:00.901Z,33.52
2017-05-12T20:33:29.961Z,34.20
2017-05-12T20:35:59.052Z,33.60
2017-05-12T20:38:28.854Z,33.54
2017-05-12T20:40:58.790Z,33.50
2017-05-12T20:43:27.865Z,36.90
2017-05-12T20:45:56.957Z,45.70
2017-05-12T20:48:26.787Z,39.70
2017-05-12T20:50:55.900Z,37.18
2017-05-12T20:53:25.187Z,33.88
2017-05-12T20:55:54.272Z,32.44
2017-05-12T20:58:23.348Z,34.52
2017-05-12T21:00:53.188Z,33.40
2017-05-12T21:03:22.253Z,34.22
2017-05-12T21:05:52.546Z,36.50
2017-05-12T21:08:21.618Z,42.00
2017-05-12T21:10:50.711Z,38.40
2017-05-12T21:13:19.834Z,58.08
2017-05-12T21:15:48.907Z,85.98
2017-05-12T21:18:17.998Z,99.44
2017-05-12T21:20:47.099Z,56.78
2017-05-12T21:23:16.290Z,35.08
2017-05-12T21:25:45.457Z,31.62
2017-05-12T21:28:14.570Z,32.64
2017-05-12T21:30:43.644Z,32.56
2017-05-12T21:33:13.492Z,32.12
2017-05-12T21:35:42.675Z,34.34
2017-05-12T21:38:11.742Z,32.06
2017-05-12T21:40:40.835Z,31.46
2017-05-12T21:43:10.756Z,30.42
2017-05-12T21:45:39.833Z,32.70
2017-05-12T21:48:09.885Z,31.66
2017-05-12T21:50:38.947Z,31.74
2017-05-12T21:53:08.760Z,30.30
2017-05-12T21:55:38.598Z,30.64
2017-05-12T21:58:07.665Z,32.44
2017-05-12T22:00:36.856Z,33.92
2017-05-12T22:03:05.919Z,33.64
2017-05-12T22:05:34.995Z,35.90
2017-05-12T22:08:04.094Z,34.62
2017-05-12T22:10:33.176Z,34.14
2017-05-12T22:13:02.438Z,35.12
2017-05-12T22:15:31.519Z,34.72
2017-05-12T22:20:36.941Z,34.48
2017-05-12T22:23:06.008Z,35.26
2017-05-12T22:25:35.099Z,36.18
2017-05-12T22:28:04.167Z,32.34
2017-05-12T22:30:34.007Z,28.78
2017-05-12T22:33:03.807Z,34.30
2017-05-12T22:35:32.925Z,35.36
2017-05-12T22:38:02.004Z,32.30
2017-05-12T22:40:32.152Z,31.96
2017-05-12T22:43:01.213Z,34.26
2017-05-12T22:45:31.039Z,33.34
2017-05-12T22:48:00.132Z,36.38
2017-05-12T22:50:29.201Z,33.38
2017-05-12T22:52:59.238Z,31.94
2017-05-12T22:55:28.304Z,32.72
2017-05-12T22:57:57.403Z,34.04
2017-05-12T23:00:26.486Z,34.34
2017-05-12T23:02:55.561Z,32.22
2017-05-12T23:05:24.751Z,36.28
2017-05-12T23:07:53.855Z,33.04
2017-05-12T23:10:22.927Z,36.12
2017-05-12T23:12:52.012Z,36.86
2017-05-12T23:15:21.187Z,31.82
2017-05-12T23:17:51.120Z,35.84
2017-05-12T23:20:20.198Z,34.78
2017-05-12T23:22:49.286Z,34.68
2017-05-12T23:25:18.386Z,36.10
2017-05-12T23:27:47.470Z,36.84
2017-05-12T23:30:16.579Z,37.90
2017-05-12T23:32:45.651Z,39.40
2017-05-12T23:35:15.591Z,37.78
2017-05-12T23:37:44.659Z,36.90
2017-05-12T23:40:13.770Z,36.00
2017-05-12T23:42:42.891Z,38.10
2017-05-12T23:45:11.959Z,37.72
2017-05-12T23:47:41.364Z,40.76
2017-05-12T23:50:11.175Z,36.96
2017-05-12T23:52:40.247Z,37.78
2017-05-12T23:55:10.085Z,34.68
2017-05-12T23:57:39.896Z,37.16
